sensor_id;sensor_type;location;lat;lon;timestamp;temperature;humidity
20512;DHT22;10414;52.074;5.126;2023-02-26T00:00:33;4.20;99.90
20512;DHT22;10414;52.074;5.126;2023-02-26T00:03:00;4.20;99.90
20512;DHT22;10414;52.074;5.126;2023-02-26T00:05:27;4.20;99.90
20512;DHT22;10414;52.074;5.126;2023-02-26T00:07:55;4.50;99.90
20512;DHT22;10414;52.074;5.126;2023-02-26T00:10:22;4.50;99.90
20512;DHT22;10414;52.074;5.126;2023-02-26T00:12:50;4.30;99.90
20512;DHT22;10414;52.074;5.126;2023-02-26T00:15:17;4.10;99.90
20512;DHT22;10414;52.074;5.126;2023-02-26T00:17:48;4.20;99.90
20512;DHT22;10414;52.074;5.126;2023-02-26T00:20:18;4.20;99.90
20512;DHT22;10414;52.074;5.126;2023-02-26T00:22:45;4.10;99.90
20512;DHT22;10414;52.074;5.126;2023-02-26T00:25:13;4.00;99.90
20512;DHT22;10414;52.074;5.126;2023-02-26T00:27:41;4.10;99.90
20512;DHT22;10414;52.074;5.126;2023-02-26T00:30:10;4.10;99.90
20512;DHT22;10414;52.074;5.126;2023-02-26T00:32:38;4.10;99.90
20512;DHT22;10414;52.074;5.126;2023-02-26T00:35:06;3.90;99.90
20512;DHT22;10414;52.074;5.126;2023-02-26T00:37:57;3.80;99.90
20512;DHT22;10414;52.074;5.126;2023-02-26T00:40:39;3.60;99.90
20512;DHT22;10414;52.074;5.126;2023-02-26T00:43:09;3.50;99.90
20512;DHT22;10414;52.074;5.126;2023-02-26T00:45:43;3.50;99.90
20512;DHT22;10414;52.074;5.126;2023-02-26T00:48:29;3.40;99.90
20512;DHT22;10414;52.074;5.126;2023-02-26T00:51:07;3.40;99.90
20512;DHT22;10414;52.074;5.126;2023-02-26T00:53:41;3.30;99.90
20512;DHT22;10414;52.074;5.126;2023-02-26T00:56:12;3.40;99.90
20512;DHT22;10414;52.074;5.126;2023-02-26T00:58:39;3.30;99.90
20512;DHT22;10414;52.074;5.126;2023-02-26T01:01:06;3.30;99.90
20512;DHT22;10414;52.074;5.126;2023-02-26T01:03:33;3.20;99.90
20512;DHT22;10414;52.074;5.126;2023-02-26T01:06:00;3.30;99.90
20512;DHT22;10414;52.074;5.126;2023-02-26T01:08:31;3.20;99.90
20512;DHT22;10414;52.074;5.126;2023-02-26T01:11:00;3.20;99.90
20512;DHT22;10414;52.074;5.126;2023-02-26T01:13:28;3.20;99.90
20512;DHT22;10414;52.074;5.126;2023-02-26T01:16:01;3.10;99.90
20512;DHT22;10414;52.074;5.126;2023-02-26T01:18:34;3.00;99.90
20512;DHT22;10414;52.074;5.126;2023-02-26T01:21:04;3.00;99.90
20512;DHT22;10414;52.074;5.126;2023-02-26T01:23:37;3.00;99.90
20512;DHT22;10414;52.074;5.126;2023-02-26T01:26:09;3.10;99.90
20512;DHT22;10414;52.074;5.126;2023-02-26T01:28:39;3.00;99.90
20512;DHT22;10414;52.074;5.126;2023-02-26T01:31:15;3.00;99.90
20512;DHT22;10414;52.074;5.126;2023-02-26T01:33:46;3.00;99.90
20512;DHT22;10414;52.074;5.126;2023-02-26T01:36:20;2.90;99.90
20512;DHT22;10414;52.074;5.126;2023-02-26T01:38:51;3.00;99.90
20512;DHT22;10414;52.074;5.126;2023-02-26T01:41:28;2.90;99.90
20512;DHT22;10414;52.074;5.126;2023-02-26T01:44:06;2.90;99.90
20512;DHT22;10414;52.074;5.126;2023-02-26T01:46:40;2.90;99.90
20512;DHT22;10414;52.074;5.126;2023-02-26T01:49:13;2.90;99.90
20512;DHT22;10414;52.074;5.126;2023-02-26T01:51:44;2.90;99.90
20512;DHT22;10414;52.074;5.126;2023-02-26T01:54:12;2.90;99.90
20512;DHT22;10414;52.074;5.126;2023-02-26T01:56:40;2.90;99.90
20512;DHT22;10414;52.074;5.126;2023-02-26T01:59:12;2.80;99.90
20512;DHT22;10414;52.074;5.126;2023-02-26T02:01:40;2.80;99.90
20512;DHT22;10414;52.074;5.126;2023-02-26T02:04:12;2.60;99.90
20512;DHT22;10414;52.074;5.126;2023-02-26T02:06:40;2.60;99.90
20512;DHT22;10414;52.074;5.126;2023-02-26T02:09:07;2.50;99.90
20512;DHT22;10414;52.074;5.126;2023-02-26T02:11:42;2.50;99.90
20512;DHT22;10414;52.074;5.126;2023-02-26T02:14:17;2.40;99.90
20512;DHT22;10414;52.074;5.126;2023-02-26T02:16:50;2.30;99.90
20512;DHT22;10414;52.074;5.126;2023-02-26T02:19:41;2.30;99.90
20512;DHT22;10414;52.074;5.126;2023-02-26T02:22:24;2.30;99.90
20512;DHT22;10414;52.074;5.126;2023-02-26T02:25:13;2.40;99.90
20512;DHT22;10414;52.074;5.126;2023-02-26T02:27:51;2.30;99.90
20512;DHT22;10414;52.074;5.126;2023-02-26T02:30:31;2.20;99.90
20512;DHT22;10414;52.074;5.126;2023-02-26T02:33:04;2.10;99.90
20512;DHT22;10414;52.074;5.126;2023-02-26T02:35:37;2.20;99.90
20512;DHT22;10414;52.074;5.126;2023-02-26T02:38:09;2.20;99.90
20512;DHT22;10414;52.074;5.126;2023-02-26T02:40:39;2.20;99.90
20512;DHT22;10414;52.074;5.126;2023-02-26T02:43:12;2.30;99.90
20512;DHT22;10414;52.074;5.126;2023-02-26T02:45:43;2.30;99.90
20512;DHT22;10414;52.074;5.126;2023-02-26T02:48:16;2.20;99.90
20512;DHT22;10414;52.074;5.126;2023-02-26T02:50:47;2.30;99.90
20512;DHT22;10414;52.074;5.126;2023-02-26T02:53:17;2.30;99.90
20512;DHT22;10414;52.074;5.126;2023-02-26T02:55:47;2.40;99.90
20512;DHT22;10414;52.074;5.126;2023-02-26T02:58:18;2.20;99.90
20512;DHT22;10414;52.074;5.126;2023-02-26T03:00:48;2.00;99.90
20512;DHT22;10414;52.074;5.126;2023-02-26T03:03:22;2.00;99.90
20512;DHT22;10414;52.074;5.126;2023-02-26T03:05:51;2.00;99.90
20512;DHT22;10414;52.074;5.126;2023-02-26T03:08:21;2.10;99.90
20512;DHT22;10414;52.074;5.126;2023-02-26T03:10:48;2.10;99.90
20512;DHT22;10414;52.074;5.126;2023-02-26T03:13:16;2.00;99.90
20512;DHT22;10414;52.074;5.126;2023-02-26T03:15:54;2.10;99.90
20512;DHT22;10414;52.074;5.126;2023-02-26T03:18:34;2.10;99.90
20512;DHT22;10414;52.074;5.126;2023-02-26T03:21:07;2.10;99.90
20512;DHT22;10414;52.074;5.126;2023-02-26T03:23:39;1.90;99.90
20512;DHT22;10414;52.074;5.126;2023-02-26T03:26:11;1.90;99.90
20512;DHT22;10414;52.074;5.126;2023-02-26T03:28:45;1.90;99.90
20512;DHT22;10414;52.074;5.126;2023-02-26T03:31:18;1.90;99.90
20512;DHT22;10414;52.074;5.126;2023-02-26T03:33:53;1.90;99.90
20512;DHT22;10414;52.074;5.126;2023-02-26T03:36:24;1.90;99.90
20512;DHT22;10414;52.074;5.126;2023-02-26T03:38:56;1.90;99.90
20512;DHT22;10414;52.074;5.126;2023-02-26T03:41:29;1.90;99.90
20512;DHT22;10414;52.074;5.126;2023-02-26T03:44:02;1.80;99.90
20512;DHT22;10414;52.074;5.126;2023-02-26T03:46:32;1.90;99.90
20512;DHT22;10414;52.074;5.126;2023-02-26T03:49:03;1.80;99.90
20512;DHT22;10414;52.074;5.126;2023-02-26T03:51:32;1.80;99.90
20512;DHT22;10414;52.074;5.126;2023-02-26T03:54:04;1.80;99.90
20512;DHT22;10414;52.074;5.126;2023-02-26T03:56:38;2.00;99.90
20512;DHT22;10414;52.074;5.126;2023-02-26T03:59:06;2.10;99.90
20512;DHT22;10414;52.074;5.126;2023-02-26T04:01:37;2.20;99.90
20512;DHT22;10414;52.074;5.126;2023-02-26T04:04:09;2.00;99.90
20512;DHT22;10414;52.074;5.126;2023-02-26T04:06:37;1.90;99.90
20512;DHT22;10414;52.074;5.126;2023-02-26T04:09:04;1.90;99.90
20512;DHT22;10414;52.074;5.126;2023-02-26T04:11:31;1.80;99.90
20512;DHT22;10414;52.074;5.126;2023-02-26T04:13:59;1.90;99.90
20512;DHT22;10414;52.074;5.126;2023-02-26T04:16:26;1.80;99.90
20512;DHT22;10414;52.074;5.126;2023-02-26T04:18:52;1.70;99.90
20512;DHT22;10414;52.074;5.126;2023-02-26T04:21:23;1.80;99.90
20512;DHT22;10414;52.074;5.126;2023-02-26T04:23:50;1.90;99.90
20512;DHT22;10414;52.074;5.126;2023-02-26T04:26:17;1.80;99.90
20512;DHT22;10414;52.074;5.126;2023-02-26T04:28:44;1.70;99.90
20512;DHT22;10414;52.074;5.126;2023-02-26T04:31:10;1.50;99.90
20512;DHT22;10414;52.074;5.126;2023-02-26T04:33:38;1.50;99.90
20512;DHT22;10414;52.074;5.126;2023-02-26T04:36:05;1.50;99.90
20512;DHT22;10414;52.074;5.126;2023-02-26T04:38:33;1.50;99.90
20512;DHT22;10414;52.074;5.126;2023-02-26T04:41:00;1.60;99.90
20512;DHT22;10414;52.074;5.126;2023-02-26T04:43:27;1.40;99.90
20512;DHT22;10414;52.074;5.126;2023-02-26T04:45:54;1.50;99.90
20512;DHT22;10414;52.074;5.126;2023-02-26T04:48:21;1.30;99.90
20512;DHT22;10414;52.074;5.126;2023-02-26T04:50:48;1.30;99.90
20512;DHT22;10414;52.074;5.126;2023-02-26T04:53:15;1.50;99.90
20512;DHT22;10414;52.074;5.126;2023-02-26T04:55:46;1.60;99.90
20512;DHT22;10414;52.074;5.126;2023-02-26T04:58:13;1.60;99.90
20512;DHT22;10414;52.074;5.126;2023-02-26T05:00:40;1.50;99.90
20512;DHT22;10414;52.074;5.126;2023-02-26T05:03:07;1.50;99.90
20512;DHT22;10414;52.074;5.126;2023-02-26T05:05:34;1.60;99.90
20512;DHT22;10414;52.074;5.126;2023-02-26T05:08:01;1.50;99.90
20512;DHT22;10414;52.074;5.126;2023-02-26T05:10:28;1.40;99.90
20512;DHT22;10414;52.074;5.126;2023-02-26T05:12:56;1.40;99.90
20512;DHT22;10414;52.074;5.126;2023-02-26T05:15:23;1.50;99.90
20512;DHT22;10414;52.074;5.126;2023-02-26T05:17:50;1.40;99.90
20512;DHT22;10414;52.074;5.126;2023-02-26T05:20:17;1.30;99.90
20512;DHT22;10414;52.074;5.126;2023-02-26T05:22:44;1.30;99.90
20512;DHT22;10414;52.074;5.126;2023-02-26T05:25:10;1.20;99.90
20512;DHT22;10414;52.074;5.126;2023-02-26T05:27:38;1.40;99.90
20512;DHT22;10414;52.074;5.126;2023-02-26T05:30:10;1.30;99.90
20512;DHT22;10414;52.074;5.126;2023-02-26T05:32:38;1.30;99.90
20512;DHT22;10414;52.074;5.126;2023-02-26T05:35:06;1.20;99.90
20512;DHT22;10414;52.074;5.126;2023-02-26T05:37:32;1.10;99.90
20512;DHT22;10414;52.074;5.126;2023-02-26T05:39:59;1.20;99.90
20512;DHT22;10414;52.074;5.126;2023-02-26T05:42:26;1.20;99.90
20512;DHT22;10414;52.074;5.126;2023-02-26T05:44:53;1.10;99.90
20512;DHT22;10414;52.074;5.126;2023-02-26T05:47:21;1.10;99.90
20512;DHT22;10414;52.074;5.126;2023-02-26T05:49:48;1.00;99.90
20512;DHT22;10414;52.074;5.126;2023-02-26T05:52:15;1.10;99.90
20512;DHT22;10414;52.074;5.126;2023-02-26T05:54:43;0.90;99.90
20512;DHT22;10414;52.074;5.126;2023-02-26T05:57:10;1.00;99.90
20512;DHT22;10414;52.074;5.126;2023-02-26T05:59:37;1.00;99.90
20512;DHT22;10414;52.074;5.126;2023-02-26T06:02:04;1.00;99.90
20512;DHT22;10414;52.074;5.126;2023-02-26T06:04:32;1.10;99.90
20512;DHT22;10414;52.074;5.126;2023-02-26T06:07:00;1.10;99.90
20512;DHT22;10414;52.074;5.126;2023-02-26T06:09:27;1.20;99.90
20512;DHT22;10414;52.074;5.126;2023-02-26T06:11:54;1.20;99.90
20512;DHT22;10414;52.074;5.126;2023-02-26T06:14:21;1.00;99.90
20512;DHT22;10414;52.074;5.126;2023-02-26T06:16:48;1.10;99.90
20512;DHT22;10414;52.074;5.126;2023-02-26T06:19:14;1.00;99.90
20512;DHT22;10414;52.074;5.126;2023-02-26T06:21:43;0.90;99.90
20512;DHT22;10414;52.074;5.126;2023-02-26T06:24:09;0.90;99.90
20512;DHT22;10414;52.074;5.126;2023-02-26T06:26:36;1.00;99.90
20512;DHT22;10414;52.074;5.126;2023-02-26T06:29:03;0.90;99.90
20512;DHT22;10414;52.074;5.126;2023-02-26T06:31:30;1.10;99.90
20512;DHT22;10414;52.074;5.126;2023-02-26T06:33:57;1.00;99.90
20512;DHT22;10414;52.074;5.126;2023-02-26T06:36:24;0.90;99.90
20512;DHT22;10414;52.074;5.126;2023-02-26T06:38:52;1.10;99.90
20512;DHT22;10414;52.074;5.126;2023-02-26T06:41:19;1.10;99.90
20512;DHT22;10414;52.074;5.126;2023-02-26T06:43:46;1.00;99.90
20512;DHT22;10414;52.074;5.126;2023-02-26T06:46:13;1.10;99.90
20512;DHT22;10414;52.074;5.126;2023-02-26T06:48:40;1.20;99.90
20512;DHT22;10414;52.074;5.126;2023-02-26T06:51:06;1.10;99.90
20512;DHT22;10414;52.074;5.126;2023-02-26T06:53:33;1.10;99.90
20512;DHT22;10414;52.074;5.126;2023-02-26T06:56:02;1.20;99.90
20512;DHT22;10414;52.074;5.126;2023-02-26T06:58:29;1.10;99.90
20512;DHT22;10414;52.074;5.126;2023-02-26T07:00:56;1.10;99.90
20512;DHT22;10414;52.074;5.126;2023-02-26T07:03:23;1.10;99.90
20512;DHT22;10414;52.074;5.126;2023-02-26T07:05:49;1.20;99.90
20512;DHT22;10414;52.074;5.126;2023-02-26T07:08:16;1.20;99.90
20512;DHT22;10414;52.074;5.126;2023-02-26T07:10:43;1.20;99.90
20512;DHT22;10414;52.074;5.126;2023-02-26T07:13:15;1.20;99.90
20512;DHT22;10414;52.074;5.126;2023-02-26T07:15:42;1.30;99.90
20512;DHT22;10414;52.074;5.126;2023-02-26T07:18:09;1.30;99.90
20512;DHT22;10414;52.074;5.126;2023-02-26T07:20:36;1.40;99.90
20512;DHT22;10414;52.074;5.126;2023-02-26T07:23:03;1.50;99.90
20512;DHT22;10414;52.074;5.126;2023-02-26T07:25:30;1.50;99.90
20512;DHT22;10414;52.074;5.126;2023-02-26T07:27:56;2.20;99.90
20512;DHT22;10414;52.074;5.126;2023-02-26T07:30:26;3.80;99.90
20512;DHT22;10414;52.074;5.126;2023-02-26T07:32:52;5.50;99.90
20512;DHT22;10414;52.074;5.126;2023-02-26T07:35:19;7.70;99.90
20512;DHT22;10414;52.074;5.126;2023-02-26T07:37:46;8.30;98.70
20512;DHT22;10414;52.074;5.126;2023-02-26T07:40:13;9.00;98.10
20512;DHT22;10414;52.074;5.126;2023-02-26T07:42:40;8.50;98.10
20512;DHT22;10414;52.074;5.126;2023-02-26T07:45:08;8.60;98.90
20512;DHT22;10414;52.074;5.126;2023-02-26T07:47:36;9.40;96.80
20512;DHT22;10414;52.074;5.126;2023-02-26T07:50:03;9.20;96.40
20512;DHT22;10414;52.074;5.126;2023-02-26T07:52:30;9.30;96.50
20512;DHT22;10414;52.074;5.126;2023-02-26T07:54:57;9.50;96.10
20512;DHT22;10414;52.074;5.126;2023-02-26T07:57:24;10.00;95.40
20512;DHT22;10414;52.074;5.126;2023-02-26T07:59:51;9.90;96.00
20512;DHT22;10414;52.074;5.126;2023-02-26T08:02:18;9.30;95.30
20512;DHT22;10414;52.074;5.126;2023-02-26T08:04:46;9.60;96.10
20512;DHT22;10414;52.074;5.126;2023-02-26T08:07:12;11.20;93.80
20512;DHT22;10414;52.074;5.126;2023-02-26T08:09:39;10.90;92.80
20512;DHT22;10414;52.074;5.126;2023-02-26T08:12:06;11.00;92.90
20512;DHT22;10414;52.074;5.126;2023-02-26T08:14:33;10.80;92.30
20512;DHT22;10414;52.074;5.126;2023-02-26T08:17:00;10.10;93.30
20512;DHT22;10414;52.074;5.126;2023-02-26T08:19:27;9.80;93.80
20512;DHT22;10414;52.074;5.126;2023-02-26T08:21:55;10.20;94.50
20512;DHT22;10414;52.074;5.126;2023-02-26T08:24:22;11.40;91.70
20512;DHT22;10414;52.074;5.126;2023-02-26T08:26:49;11.20;92.30
20512;DHT22;10414;52.074;5.126;2023-02-26T08:29:16;10.60;92.00
20512;DHT22;10414;52.074;5.126;2023-02-26T08:31:43;10.90;92.10
20512;DHT22;10414;52.074;5.126;2023-02-26T08:34:10;10.50;92.50
20512;DHT22;10414;52.074;5.126;2023-02-26T08:36:38;10.90;91.80
20512;DHT22;10414;52.074;5.126;2023-02-26T08:39:06;9.70;92.90
20512;DHT22;10414;52.074;5.126;2023-02-26T08:41:33;9.40;93.90
20512;DHT22;10414;52.074;5.126;2023-02-26T08:44:01;9.90;93.00
20512;DHT22;10414;52.074;5.126;2023-02-26T08:46:28;9.20;93.80
20512;DHT22;10414;52.074;5.126;2023-02-26T08:48:55;10.10;93.50
20512;DHT22;10414;52.074;5.126;2023-02-26T08:51:22;11.30;90.80
20512;DHT22;10414;52.074;5.126;2023-02-26T08:53:49;9.80;92.40
20512;DHT22;10414;52.074;5.126;2023-02-26T08:56:17;10.00;92.80
20512;DHT22;10414;52.074;5.126;2023-02-26T08:58:44;9.40;92.90
20512;DHT22;10414;52.074;5.126;2023-02-26T09:01:11;9.60;93.30
20512;DHT22;10414;52.074;5.126;2023-02-26T09:03:38;10.80;90.50
20512;DHT22;10414;52.074;5.126;2023-02-26T09:06:05;10.40;90.30
20512;DHT22;10414;52.074;5.126;2023-02-26T09:08:32;10.20;91.20
20512;DHT22;10414;52.074;5.126;2023-02-26T09:10:59;10.30;90.70
20512;DHT22;10414;52.074;5.126;2023-02-26T09:13:29;10.60;90.30
20512;DHT22;10414;52.074;5.126;2023-02-26T09:15:56;9.60;90.90
20512;DHT22;10414;52.074;5.126;2023-02-26T09:18:22;9.90;91.10
20512;DHT22;10414;52.074;5.126;2023-02-26T09:20:49;10.60;90.40
20512;DHT22;10414;52.074;5.126;2023-02-26T09:23:16;11.60;88.80
20512;DHT22;10414;52.074;5.126;2023-02-26T09:25:43;12.70;84.80
20512;DHT22;10414;52.074;5.126;2023-02-26T09:28:10;12.30;82.20
20512;DHT22;10414;52.074;5.126;2023-02-26T09:30:38;10.90;85.30
20512;DHT22;10414;52.074;5.126;2023-02-26T09:33:05;9.70;86.80
20512;DHT22;10414;52.074;5.126;2023-02-26T09:35:34;9.00;89.10
20512;DHT22;10414;52.074;5.126;2023-02-26T09:38:01;9.00;90.60
20512;DHT22;10414;52.074;5.126;2023-02-26T09:40:36;9.80;89.20
20512;DHT22;10414;52.074;5.126;2023-02-26T09:46:04;10.70;85.70
20512;DHT22;10414;52.074;5.126;2023-02-26T09:48:33;9.50;89.40
20512;DHT22;10414;52.074;5.126;2023-02-26T09:51:02;9.70;88.90
20512;DHT22;10414;52.074;5.126;2023-02-26T09:53:32;9.50;89.00
20512;DHT22;10414;52.074;5.126;2023-02-26T09:56:06;9.50;90.00
20512;DHT22;10414;52.074;5.126;2023-02-26T09:58:37;10.00;87.50
20512;DHT22;10414;52.074;5.126;2023-02-26T10:01:10;10.80;87.70
20512;DHT22;10414;52.074;5.126;2023-02-26T10:03:50;11.70;85.70
20512;DHT22;10414;52.074;5.126;2023-02-26T10:06:24;12.80;81.50
20512;DHT22;10414;52.074;5.126;2023-02-26T10:09:07;13.20;79.50
20512;DHT22;10414;52.074;5.126;2023-02-26T10:11:42;12.70;79.30
20512;DHT22;10414;52.074;5.126;2023-02-26T10:14:17;11.60;82.00
20512;DHT22;10414;52.074;5.126;2023-02-26T10:16:50;11.10;83.10
20512;DHT22;10414;52.074;5.126;2023-02-26T10:19:24;11.40;83.20
20512;DHT22;10414;52.074;5.126;2023-02-26T10:21:56;10.90;83.50
20512;DHT22;10414;52.074;5.126;2023-02-26T10:24:23;10.70;84.70
20512;DHT22;10414;52.074;5.126;2023-02-26T10:26:56;12.30;82.10
20512;DHT22;10414;52.074;5.126;2023-02-26T10:29:30;11.40;82.40
20512;DHT22;10414;52.074;5.126;2023-02-26T10:32:05;10.00;84.80
20512;DHT22;10414;52.074;5.126;2023-02-26T10:34:39;9.30;87.70
20512;DHT22;10414;52.074;5.126;2023-02-26T10:37:18;9.90;88.20
20512;DHT22;10414;52.074;5.126;2023-02-26T10:39:49;10.70;86.40
20512;DHT22;10414;52.074;5.126;2023-02-26T10:42:22;10.20;87.30
20512;DHT22;10414;52.074;5.126;2023-02-26T10:45:01;10.20;86.50
20512;DHT22;10414;52.074;5.126;2023-02-26T10:47:42;10.50;87.50
20512;DHT22;10414;52.074;5.126;2023-02-26T10:50:12;10.40;88.60
20512;DHT22;10414;52.074;5.126;2023-02-26T10:52:42;11.00;86.10
20512;DHT22;10414;52.074;5.126;2023-02-26T10:55:29;9.80;88.00
20512;DHT22;10414;52.074;5.126;2023-02-26T10:58:03;9.60;89.90
20512;DHT22;10414;52.074;5.126;2023-02-26T11:00:32;10.20;90.10
20512;DHT22;10414;52.074;5.126;2023-02-26T11:03:03;10.50;89.30
20512;DHT22;10414;52.074;5.126;2023-02-26T11:05:32;10.50;88.30
20512;DHT22;10414;52.074;5.126;2023-02-26T11:08:02;10.10;89.70
20512;DHT22;10414;52.074;5.126;2023-02-26T11:10:38;10.10;90.10
20512;DHT22;10414;52.074;5.126;2023-02-26T11:13:06;9.80;90.20
20512;DHT22;10414;52.074;5.126;2023-02-26T11:15:33;8.60;91.70
20512;DHT22;10414;52.074;5.126;2023-02-26T11:18:01;8.50;93.20
20512;DHT22;10414;52.074;5.126;2023-02-26T11:20:33;8.10;92.50
20512;DHT22;10414;52.074;5.126;2023-02-26T11:23:02;8.30;93.20
20512;DHT22;10414;52.074;5.126;2023-02-26T11:25:31;8.00;93.40
20512;DHT22;10414;52.074;5.126;2023-02-26T11:28:01;7.70;93.30
20512;DHT22;10414;52.074;5.126;2023-02-26T11:30:32;7.60;94.70
20512;DHT22;10414;52.074;5.126;2023-02-26T11:33:15;7.90;94.10
20512;DHT22;10414;52.074;5.126;2023-02-26T11:35:42;7.70;94.60
20512;DHT22;10414;52.074;5.126;2023-02-26T11:38:17;8.10;94.70
20512;DHT22;10414;52.074;5.126;2023-02-26T11:40:46;8.20;93.70
20512;DHT22;10414;52.074;5.126;2023-02-26T11:43:16;7.60;93.90
20512;DHT22;10414;52.074;5.126;2023-02-26T11:45:47;7.20;94.70
20512;DHT22;10414;52.074;5.126;2023-02-26T11:48:18;7.10;95.20
20512;DHT22;10414;52.074;5.126;2023-02-26T11:50:47;7.20;95.00
20512;DHT22;10414;52.074;5.126;2023-02-26T11:53:18;7.30;95.10
20512;DHT22;10414;52.074;5.126;2023-02-26T11:55:51;7.00;94.60
20512;DHT22;10414;52.074;5.126;2023-02-26T11:58:20;6.80;94.60
20512;DHT22;10414;52.074;5.126;2023-02-26T12:00:48;6.90;94.90
20512;DHT22;10414;52.074;5.126;2023-02-26T12:03:20;6.90;94.10
20512;DHT22;10414;52.074;5.126;2023-02-26T12:05:48;6.70;94.80
20512;DHT22;10414;52.074;5.126;2023-02-26T12:08:21;6.90;95.00
20512;DHT22;10414;52.074;5.126;2023-02-26T12:10:59;7.00;95.70
20512;DHT22;10414;52.074;5.126;2023-02-26T12:13:32;6.60;95.00
20512;DHT22;10414;52.074;5.126;2023-02-26T12:16:05;6.40;96.30
20512;DHT22;10414;52.074;5.126;2023-02-26T12:18:51;6.20;96.60
20512;DHT22;10414;52.074;5.126;2023-02-26T12:21:35;6.20;97.10
20512;DHT22;10414;52.074;5.126;2023-02-26T12:24:36;6.10;97.10
20512;DHT22;10414;52.074;5.126;2023-02-26T12:27:10;6.10;96.80
20512;DHT22;10414;52.074;5.126;2023-02-26T12:29:49;6.10;98.00
20512;DHT22;10414;52.074;5.126;2023-02-26T12:32:45;6.30;98.10
20512;DHT22;10414;52.074;5.126;2023-02-26T12:35:34;6.30;98.10
20512;DHT22;10414;52.074;5.126;2023-02-26T12:38:09;6.30;98.00
20512;DHT22;10414;52.074;5.126;2023-02-26T12:43:48;6.00;97.00
20512;DHT22;10414;52.074;5.126;2023-02-26T12:46:25;6.00;97.90
20512;DHT22;10414;52.074;5.126;2023-02-26T12:52:08;6.20;98.40
20512;DHT22;10414;52.074;5.126;2023-02-26T12:54:59;6.10;99.00
20512;DHT22;10414;52.074;5.126;2023-02-26T12:57:49;6.10;99.90
20512;DHT22;10414;52.074;5.126;2023-02-26T13:00:22;6.50;99.90
20512;DHT22;10414;52.074;5.126;2023-02-26T13:06:20;6.70;99.30
20512;DHT22;10414;52.074;5.126;2023-02-26T13:08:57;6.70;99.60
20512;DHT22;10414;52.074;5.126;2023-02-26T13:11:40;6.70;99.40
20512;DHT22;10414;52.074;5.126;2023-02-26T13:14:21;6.60;98.40
20512;DHT22;10414;52.074;5.126;2023-02-26T13:16:58;6.60;98.70
20512;DHT22;10414;52.074;5.126;2023-02-26T13:19:33;6.50;98.70
20512;DHT22;10414;52.074;5.126;2023-02-26T13:22:05;6.40;98.60
20512;DHT22;10414;52.074;5.126;2023-02-26T13:24:38;6.70;99.10
20512;DHT22;10414;52.074;5.126;2023-02-26T13:27:07;6.80;99.20
20512;DHT22;10414;52.074;5.126;2023-02-26T13:29:37;7.00;98.70
20512;DHT22;10414;52.074;5.126;2023-02-26T13:32:09;7.00;98.30
20512;DHT22;10414;52.074;5.126;2023-02-26T13:34:41;7.10;98.50
20512;DHT22;10414;52.074;5.126;2023-02-26T13:37:23;7.00;98.90
20512;DHT22;10414;52.074;5.126;2023-02-26T13:42:52;7.10;99.90
20512;DHT22;10414;52.074;5.126;2023-02-26T13:45:36;7.30;99.20
20512;DHT22;10414;52.074;5.126;2023-02-26T13:48:16;7.30;98.90
20512;DHT22;10414;52.074;5.126;2023-02-26T13:50:54;7.20;99.70
20512;DHT22;10414;52.074;5.126;2023-02-26T13:53:37;7.10;99.90
20512;DHT22;10414;52.074;5.126;2023-02-26T13:56:13;7.20;99.90
20512;DHT22;10414;52.074;5.126;2023-02-26T13:58:42;7.10;99.90
20512;DHT22;10414;52.074;5.126;2023-02-26T14:01:13;6.90;99.90
20512;DHT22;10414;52.074;5.126;2023-02-26T14:03:46;6.80;99.90
20512;DHT22;10414;52.074;5.126;2023-02-26T14:06:35;6.90;99.90
20512;DHT22;10414;52.074;5.126;2023-02-26T14:09:03;6.80;99.80
20512;DHT22;10414;52.074;5.126;2023-02-26T14:11:43;6.80;99.90
20512;DHT22;10414;52.074;5.126;2023-02-26T14:14:22;7.00;99.90
20512;DHT22;10414;52.074;5.126;2023-02-26T14:16:53;7.20;99.90
20512;DHT22;10414;52.074;5.126;2023-02-26T14:19:27;7.50;99.80
20512;DHT22;10414;52.074;5.126;2023-02-26T14:21:55;7.50;99.70
20512;DHT22;10414;52.074;5.126;2023-02-26T14:24:30;7.50;98.70
20512;DHT22;10414;52.074;5.126;2023-02-26T14:27:32;7.50;98.60
20512;DHT22;10414;52.074;5.126;2023-02-26T14:30:12;7.10;99.30
20512;DHT22;10414;52.074;5.126;2023-02-26T14:32:46;7.00;99.00
20512;DHT22;10414;52.074;5.126;2023-02-26T14:35:16;7.10;98.40
20512;DHT22;10414;52.074;5.126;2023-02-26T14:37:49;7.10;98.90
20512;DHT22;10414;52.074;5.126;2023-02-26T14:40:20;7.20;99.00
20512;DHT22;10414;52.074;5.126;2023-02-26T14:42:53;7.20;99.10
20512;DHT22;10414;52.074;5.126;2023-02-26T14:45:27;7.40;99.10
20512;DHT22;10414;52.074;5.126;2023-02-26T14:47:56;7.50;99.00
20512;DHT22;10414;52.074;5.126;2023-02-26T14:50:23;7.50;98.80
20512;DHT22;10414;52.074;5.126;2023-02-26T14:53:04;7.20;98.30
20512;DHT22;10414;52.074;5.126;2023-02-26T14:55:48;7.10;98.60
20512;DHT22;10414;52.074;5.126;2023-02-26T14:58:44;7.00;99.00
20512;DHT22;10414;52.074;5.126;2023-02-26T15:01:27;7.00;98.40
20512;DHT22;10414;52.074;5.126;2023-02-26T15:04:28;7.10;98.50
20512;DHT22;10414;52.074;5.126;2023-02-26T15:07:10;7.20;98.80
20512;DHT22;10414;52.074;5.126;2023-02-26T15:09:49;7.10;99.20
20512;DHT22;10414;52.074;5.126;2023-02-26T15:12:27;7.10;99.00
20512;DHT22;10414;52.074;5.126;2023-02-26T15:15:17;7.20;99.40
20512;DHT22;10414;52.074;5.126;2023-02-26T15:18:11;7.20;99.70
20512;DHT22;10414;52.074;5.126;2023-02-26T15:20:48;7.30;99.90
20512;DHT22;10414;52.074;5.126;2023-02-26T15:23:37;7.30;99.90
20512;DHT22;10414;52.074;5.126;2023-02-26T15:26:06;7.20;98.50
20512;DHT22;10414;52.074;5.126;2023-02-26T15:28:37;7.10;99.20
20512;DHT22;10414;52.074;5.126;2023-02-26T15:31:09;7.00;99.20
20512;DHT22;10414;52.074;5.126;2023-02-26T15:33:37;6.90;99.10
20512;DHT22;10414;52.074;5.126;2023-02-26T15:36:07;6.80;99.60
20512;DHT22;10414;52.074;5.126;2023-02-26T15:38:46;6.90;99.40
20512;DHT22;10414;52.074;5.126;2023-02-26T15:41:13;7.10;98.70
20512;DHT22;10414;52.074;5.126;2023-02-26T15:43:51;6.90;99.10
20512;DHT22;10414;52.074;5.126;2023-02-26T15:46:28;6.80;99.40
20512;DHT22;10414;52.074;5.126;2023-02-26T15:48:59;6.80;99.90
20512;DHT22;10414;52.074;5.126;2023-02-26T15:51:27;6.90;99.90
20512;DHT22;10414;52.074;5.126;2023-02-26T15:53:54;6.80;99.90
20512;DHT22;10414;52.074;5.126;2023-02-26T15:56:29;6.80;99.90
20512;DHT22;10414;52.074;5.126;2023-02-26T15:58:59;6.70;99.90
20512;DHT22;10414;52.074;5.126;2023-02-26T16:01:29;6.60;99.90
20512;DHT22;10414;52.074;5.126;2023-02-26T16:03:59;6.50;99.90
20512;DHT22;10414;52.074;5.126;2023-02-26T16:06:29;6.50;99.90
20512;DHT22;10414;52.074;5.126;2023-02-26T16:08:56;6.60;99.90
20512;DHT22;10414;52.074;5.126;2023-02-26T16:11:25;6.50;99.90
20512;DHT22;10414;52.074;5.126;2023-02-26T16:13:54;6.40;99.90
20512;DHT22;10414;52.074;5.126;2023-02-26T16:16:23;6.40;99.90
20512;DHT22;10414;52.074;5.126;2023-02-26T16:18:54;6.40;99.90
20512;DHT22;10414;52.074;5.126;2023-02-26T16:21:27;6.40;99.90
20512;DHT22;10414;52.074;5.126;2023-02-26T16:23:55;6.30;99.90
20512;DHT22;10414;52.074;5.126;2023-02-26T16:26:28;6.20;99.90